Time;durP1;ratioP1;P1;durP2;ratioP2;P2;SDS_P1;SDS_P2;PMS_P1;PMS_P2;Temp;Humidity;BMP_temperature;BMP_pressure;BME280_temperature;BME280_humidity;BME280_pressure;Samples;Min_cycle;Max_cycle;Signal;HPM_P1;HPM_P2
2022/09/30 00:01:26;;;;;;;16.15;10.27;;;;;;;;;;5014494;28;20116;-72
2022/09/30 00:03:52;;;;;;;;;;;;;;;;;;5014472;28;20077;-72
2022/09/30 00:06:19;;;;;;;17.83;11.57;;;;;;;;;;5013970;28;19921;-71
2022/09/30 00:08:46;;;;;;;17.33;11.43;;;;;;;;;;4996780;28;20064;-72
2022/09/30 00:11:18;;;;;;;;;;;;;;;;;;5013995;28;20100;-72
2022/09/30 00:13:45;;;;;;;18.02;11.27;;;;;;;;;;4996690;28;19932;-71
2022/09/30 00:16:12;;;;;;;16.92;10.23;;;;;;;;;;4996380;28;20046;-71
2022/09/30 00:18:42;;;;;;;16.35;10.88;;;;;;;;;;5013678;28;20061;-72
2022/09/30 00:21:09;;;;;;;17.15;11.05;;;;;;;;;;5013589;28;20049;-71
2022/09/30 00:23:39;;;;;;;16.25;10.18;;;;;;;;;;5013637;28;20469;-71
2022/09/30 00:26:07;;;;;;;15.48;10.10;;;;;;;;;;5013530;28;20046;-71
2022/09/30 00:28:33;;;;;;;15.20;10.02;;;;;;;;;;5014372;28;20041;-72
2022/09/30 00:30:59;;;;;;;;;;;;;;;;;;4996563;28;20127;-72
2022/09/30 00:33:25;;;;;;;17.17;10.93;;;;;;;;;;5013151;28;19925;-71
2022/09/30 00:35:51;;;;;;;16.35;10.73;;;;;;;;;;5013488;28;20101;-72
2022/09/30 00:38:17;;;;;;;17.60;10.13;;;;;;;;;;5013448;28;20061;-72
2022/09/30 00:40:44;;;;;;;18.63;9.63;;;;;;;;;;5013363;28;20057;-72
2022/09/30 00:43:13;;;;;;;15.27;10.38;;;;;;;;;;5013801;28;20052;-71
2022/09/30 00:45:46;;;;;;;18.98;11.45;;;;;;;;;;4996325;28;20424;-71
2022/09/30 00:48:15;;;;;;;16.30;11.43;;;;;;;;;;4996074;28;20503;-71
2022/09/30 00:50:45;;;;;;;18.58;11.15;;;;;;;;;;5013788;28;20436;-72
2022/09/30 00:53:14;;;;;;;16.85;10.70;;;;;;;;;;5013235;28;20050;-71
2022/09/30 00:55:40;;;;;;;18.13;11.63;;;;;;;;;;5013453;28;20136;-71
2022/09/30 00:58:08;;;;;;;14.45;9.70;;;;;;;;;;5013384;28;20477;-69
2022/09/30 01:00:34;;;;;;;16.35;9.20;;;;;;;;;;4995842;28;20057;-71
2022/09/30 01:03:01;;;;;;;16.42;10.90;;;;;;;;;;5013339;28;20069;-73
2022/09/30 01:05:27;;;;;;;17.00;10.68;;;;;;;;;;5013243;28;20050;-73
2022/09/30 01:07:56;;;;;;;15.93;10.00;;;;;;;;;;5013221;28;20133;-72
2022/09/30 01:10:22;;;;;;;17.42;11.20;;;;;;;;;;4995763;28;20128;-71
2022/09/30 01:12:48;;;;;;;20.73;10.25;;;;;;;;;;5012661;28;20050;-72
2022/09/30 01:15:14;;;;;;;16.10;10.57;;;;;;;;;;5013121;28;20496;-71
2022/09/30 01:17:49;;;;;;;16.83;10.93;;;;;;;;;;5013696;28;20139;-71
2022/09/30 01:20:21;;;;;;;15.60;11.13;;;;;;;;;;5013327;28;20080;-71
2022/09/30 01:22:47;;;;;;;14.45;9.13;;;;;;;;;;5012755;28;20489;-72
2022/09/30 01:25:28;;;;;;;19.48;11.52;;;;;;;;;;5013251;28;20053;-70
2022/09/30 01:27:57;;;;;;;18.60;11.15;;;;;;;;;;5013109;28;20365;-71
2022/09/30 01:30:53;;;;;;;17.08;10.05;;;;;;;;;;5012789;28;20528;-71
2022/09/30 01:33:19;;;;;;;15.95;10.02;;;;;;;;;;4943372;28;20087;-71
2022/09/30 01:35:45;;;;;;;16.08;9.90;;;;;;;;;;4996349;28;20053;-71
2022/09/30 01:38:28;;;;;;;17.23;10.23;;;;;;;;;;5013052;28;20042;-69
2022/09/30 01:41:00;;;;;;;19.35;11.48;;;;;;;;;;5013120;28;20056;-71
2022/09/30 01:43:31;;;;;;;15.63;11.00;;;;;;;;;;5012722;28;20145;-71
2022/09/30 01:45:59;;;;;;;15.90;10.35;;;;;;;;;;5014301;28;20053;-71
2022/09/30 01:48:43;;;;;;;16.23;10.20;;;;;;;;;;5016205;28;20485;-71
2022/09/30 01:51:27;;;;;;;16.25;9.27;;;;;;;;;;5016258;28;20072;-71
2022/09/30 01:54:07;;;;;;;13.18;8.32;;;;;;;;;;5016210;28;20053;-71
2022/09/30 01:56:55;;;;;;;14.60;9.15;;;;;;;;;;4999479;28;20058;-71
2022/09/30 01:59:31;;;;;;;13.48;9.40;;;;;;;;;;5016745;28;20101;-71
2022/09/30 02:02:07;;;;;;;13.38;9.02;;;;;;;;;;5016362;28;20054;-72
2022/09/30 02:04:40;;;;;;;14.95;8.63;;;;;;;;;;4999571;28;20086;-72
2022/09/30 02:07:08;;;;;;;14.88;9.48;;;;;;;;;;5016040;28;20128;-70
2022/09/30 02:09:34;;;;;;;13.43;9.25;;;;;;;;;;5016304;28;20041;-71
2022/09/30 02:12:03;;;;;;;13.50;9.15;;;;;;;;;;5015886;28;20049;-72
2022/09/30 02:14:39;;;;;;;15.65;10.27;;;;;;;;;;5015608;28;20052;-71
2022/09/30 02:17:14;;;;;;;13.90;8.95;;;;;;;;;;5015704;28;20056;-71
2022/09/30 02:19:43;;;;;;;15.90;10.05;;;;;;;;;;5016061;28;20065;-71
2022/09/30 02:22:14;;;;;;;17.65;9.50;;;;;;;;;;5015667;28;20068;-71
2022/09/30 02:24:42;;;;;;;14.43;9.63;;;;;;;;;;4998042;28;20060;-72
2022/09/30 02:27:13;;;;;;;15.50;10.20;;;;;;;;;;5015942;28;20473;-71
2022/09/30 02:29:40;;;;;;;13.85;9.45;;;;;;;;;;5015593;28;20050;-71
2022/09/30 02:32:14;;;;;;;16.02;9.27;;;;;;;;;;5015983;28;20100;-71
2022/09/30 02:34:44;;;;;;;13.75;8.95;;;;;;;;;;5016188;28;20041;-71
2022/09/30 02:37:18;;;;;;;15.80;9.20;;;;;;;;;;4998707;28;20081;-71
2022/09/30 02:39:51;;;;;;;12.73;8.65;;;;;;;;;;5015347;28;20504;-72
2022/09/30 02:42:19;;;;;;;17.02;10.25;;;;;;;;;;5015954;28;20052;-71
2022/09/30 02:44:49;;;;;;;13.48;8.40;;;;;;;;;;5015460;28;20046;-71
2022/09/30 02:47:15;;;;;;;13.38;9.38;;;;;;;;;;5015804;28;20046;-71
2022/09/30 02:49:46;;;;;;;15.45;9.20;;;;;;;;;;5015183;28;20121;-71
2022/09/30 02:52:21;;;;;;;13.95;8.90;;;;;;;;;;5015437;28;20462;-71
2022/09/30 02:54:51;;;;;;;15.50;9.13;;;;;;;;;;5015038;28;20133;-71
2022/09/30 02:57:20;;;;;;;14.20;9.50;;;;;;;;;;5015087;28;20050;-71
2022/09/30 02:59:50;;;;;;;14.20;8.85;;;;;;;;;;5015670;28;20041;-71
2022/09/30 03:02:16;;;;;;;13.30;8.82;;;;;;;;;;5015594;28;20050;-71
2022/09/30 03:04:42;;;;;;;13.65;8.00;;;;;;;;;;5014826;28;20042;-72
2022/09/30 03:07:08;;;;;;;;;;;;;;;;;;5015239;28;20046;-72
2022/09/30 03:09:35;;;;;;;12.25;7.47;;;;;;;;;;5014757;28;19971;-72
2022/09/30 03:12:07;;;;;;;13.93;8.55;;;;;;;;;;5014887;28;20057;-71
2022/09/30 03:15:03;;;;;;;12.68;8.27;;;;;;;;;;5015504;28;20053;-71
2022/09/30 03:17:49;;;;;;;13.32;8.02;;;;;;;;;;4944802;28;20051;-71
2022/09/30 03:20:30;;;;;;;13.02;7.95;;;;;;;;;;4967949;28;20054;-72
2022/09/30 03:22:59;;;;;;;14.52;9.07;;;;;;;;;;5015078;28;20050;-73
2022/09/30 03:25:43;;;;;;;12.90;8.02;;;;;;;;;;5014511;28;20140;-72
2022/09/30 03:28:38;;;;;;;12.52;8.18;;;;;;;;;;5014436;28;20129;-72
2022/09/30 03:31:04;;;;;;;12.55;7.40;;;;;;;;;;4984668;28;20443;-72
2022/09/30 03:33:34;;;;;;;12.15;8.00;;;;;;;;;;5014427;28;20544;-72
2022/09/30 03:36:03;;;;;;;13.55;7.93;;;;;;;;;;5014149;28;20060;-72
2022/09/30 03:38:48;;;;;;;12.75;7.78;;;;;;;;;;5014475;28;20056;-70
2022/09/30 03:41:27;;;;;;;12.10;8.02;;;;;;;;;;5014487;28;20512;-72
2022/09/30 03:44:11;;;;;;;11.05;7.60;;;;;;;;;;5014247;28;20046;-72
2022/09/30 03:46:44;;;;;;;11.65;7.80;;;;;;;;;;4996483;28;20081;-72
2022/09/30 03:49:12;;;;;;;14.63;7.78;;;;;;;;;;5013756;28;20535;-72
2022/09/30 03:51:39;;;;;;;11.07;7.53;;;;;;;;;;5013777;28;20045;-72
2022/09/30 03:54:10;;;;;;;12.20;7.63;;;;;;;;;;5014301;28;20315;-72
2022/09/30 03:56:41;;;;;;;12.55;7.75;;;;;;;;;;4996229;28;20378;-72
2022/09/30 03:59:24;;;;;;;10.88;7.13;;;;;;;;;;4981401;28;20077;-72
2022/09/30 04:01:50;;;;;;;13.27;8.20;;;;;;;;;;5014234;28;20041;-72
2022/09/30 04:04:17;;;;;;;12.00;8.27;;;;;;;;;;5014625;28;20053;-72
2022/09/30 04:06:43;;;;;;;11.80;7.40;;;;;;;;;;5013812;28;20371;-71
2022/09/30 04:09:09;;;;;;;12.98;8.13;;;;;;;;;;5013444;28;20054;-71
2022/09/30 04:11:35;;;;;;;11.13;7.82;;;;;;;;;;5013684;28;20062;-71
2022/09/30 04:14:01;;;;;;;13.93;8.25;;;;;;;;;;5013781;28;20100;-72
2022/09/30 04:16:30;;;;;;;12.43;8.57;;;;;;;;;;5013765;28;20046;-72
2022/09/30 04:18:56;;;;;;;12.65;8.25;;;;;;;;;;5013650;28;20085;-72
2022/09/30 04:21:22;;;;;;;13.65;7.70;;;;;;;;;;5014187;28;20136;-73
2022/09/30 04:23:49;;;;;;;11.75;7.65;;;;;;;;;;5013517;28;20053;-72
2022/09/30 04:26:16;;;;;;;11.32;7.10;;;;;;;;;;5013612;28;20085;-72
2022/09/30 04:28:45;;;;;;;12.30;7.80;;;;;;;;;;4996094;28;20058;-71
2022/09/30 04:31:12;;;;;;;11.75;7.93;;;;;;;;;;5013845;28;20046;-72
2022/09/30 04:33:38;;;;;;;12.35;8.50;;;;;;;;;;5013428;28;20085;-72
2022/09/30 04:36:04;;;;;;;13.52;8.20;;;;;;;;;;5014113;28;20060;-72
2022/09/30 04:38:30;;;;;;;;;;;;;;;;;;5013921;28;20095;-72
2022/09/30 04:40:57;;;;;;;12.50;8.07;;;;;;;;;;5013065;28;20024;-72
2022/09/30 04:43:24;;;;;;;11.95;8.00;;;;;;;;;;4995878;28;20041;-71
2022/09/30 04:45:51;;;;;;;14.00;8.05;;;;;;;;;;5013013;28;20057;-72
2022/09/30 04:48:23;;;;;;;14.63;8.57;;;;;;;;;;5013731;28;20124;-72
2022/09/30 04:50:49;;;;;;;13.52;9.02;;;;;;;;;;4995969;28;20475;-70
2022/09/30 04:53:16;;;;;;;14.57;9.70;;;;;;;;;;5013495;28;20522;-71
2022/09/30 04:55:42;;;;;;;14.32;9.43;;;;;;;;;;5013105;28;20049;-71
2022/09/30 04:58:08;;;;;;;14.52;8.55;;;;;;;;;;5013220;28;20049;-72
2022/09/30 05:00:34;;;;;;;15.65;10.13;;;;;;;;;;5013139;28;20057;-70
2022/09/30 05:03:02;;;;;;;12.77;8.35;;;;;;;;;;5012665;28;20493;-72
2022/09/30 05:05:28;;;;;;;13.90;8.88;;;;;;;;;;5012800;28;20066;-72
2022/09/30 05:07:59;;;;;;;13.77;9.82;;;;;;;;;;5013980;28;20061;-72
2022/09/30 05:10:25;;;;;;;14.57;10.13;;;;;;;;;;4995804;28;20046;-70
2022/09/30 05:12:52;;;;;;;14.73;10.65;;;;;;;;;;5013079;28;20108;-72
2022/09/30 05:15:18;;;;;;;16.27;9.68;;;;;;;;;;4996770;28;20351;-71
2022/09/30 05:17:48;;;;;;;15.70;9.73;;;;;;;;;;5013784;28;20132;-72
2022/09/30 05:20:14;;;;;;;15.52;10.02;;;;;;;;;;5013411;28;20046;-70
2022/09/30 05:22:40;;;;;;;16.77;10.80;;;;;;;;;;5016697;28;20042;-71
2022/09/30 05:25:06;;;;;;;15.25;9.82;;;;;;;;;;5016663;28;20045;-71
2022/09/30 05:27:32;;;;;;;15.52;10.73;;;;;;;;;;5016412;28;20042;-72
2022/09/30 05:29:58;;;;;;;16.35;9.88;;;;;;;;;;5017302;28;20077;-72
2022/09/30 05:32:24;;;;;;;16.25;11.85;;;;;;;;;;5016247;28;20104;-72
2022/09/30 05:34:50;;;;;;;14.68;10.18;;;;;;;;;;5015794;28;20469;-72
2022/09/30 05:37:16;;;;;;;17.30;12.45;;;;;;;;;;5016754;28;20492;-71
2022/09/30 05:39:45;;;;;;;17.30;12.63;;;;;;;;;;5017169;28;20041;-72
2022/09/30 05:42:11;;;;;;;18.33;12.27;;;;;;;;;;4982890;28;20092;-72
2022/09/30 05:44:38;;;;;;;15.40;11.27;;;;;;;;;;5016323;28;20107;-73
2022/09/30 05:47:05;;;;;;;16.60;11.77;;;;;;;;;;5016376;28;20058;-72
2022/09/30 05:49:33;;;;;;;16.08;11.80;;;;;;;;;;5016285;28;20084;-72
2022/09/30 05:51:59;;;;;;;15.43;10.60;;;;;;;;;;5016591;28;20057;-73
2022/09/30 05:54:25;;;;;;;17.25;12.00;;;;;;;;;;5016236;28;20093;-72
2022/09/30 05:56:51;;;;;;;17.30;11.82;;;;;;;;;;5016191;28;20049;-72
2022/09/30 05:59:18;;;;;;;31.08;13.45;;;;;;;;;;5015960;28;20125;-73
2022/09/30 06:01:44;;;;;;;26.60;12.88;;;;;;;;;;5015783;28;20100;-69
2022/09/30 06:04:11;;;;;;;22.48;12.38;;;;;;;;;;5015977;28;20085;-72
2022/09/30 06:06:37;;;;;;;18.80;12.77;;;;;;;;;;5016047;28;20053;-72
2022/09/30 06:09:03;;;;;;;21.75;12.32;;;;;;;;;;4999395;28;20046;-72
2022/09/30 06:11:30;;;;;;;20.92;12.05;;;;;;;;;;5015671;28;20092;-72
2022/09/30 06:13:56;;;;;;;16.67;11.20;;;;;;;;;;4982445;28;20093;-73
2022/09/30 06:16:22;;;;;;;18.33;11.52;;;;;;;;;;5015487;28;20077;-71
2022/09/30 06:18:48;;;;;;;18.27;12.25;;;;;;;;;;5015725;28;20093;-71
2022/09/30 06:21:16;;;;;;;17.13;12.02;;;;;;;;;;4998421;28;20096;-72
2022/09/30 06:23:42;;;;;;;16.50;11.15;;;;;;;;;;5015791;28;20089;-72
2022/09/30 06:26:13;;;;;;;17.63;12.00;;;;;;;;;;4998703;28;20489;-72
2022/09/30 06:28:39;;;;;;;19.95;12.85;;;;;;;;;;5015837;28;20065;-72
2022/09/30 06:31:05;;;;;;;16.85;11.68;;;;;;;;;;5015455;28;20077;-72
2022/09/30 06:33:32;;;;;;;18.38;12.05;;;;;;;;;;5015672;28;20068;-72
2022/09/30 06:36:01;;;;;;;23.35;15.63;;;;;;;;;;5015592;28;20173;-72
2022/09/30 06:38:27;;;;;;;24.90;12.85;;;;;;;;;;5015703;28;20042;-72
2022/09/30 06:40:54;;;;;;;;;;;;;;;;;;5016175;28;20534;-71
2022/09/30 06:43:20;;;;;;;22.85;13.18;;;;;;;;;;5015162;28;20284;-72
2022/09/30 06:45:47;;;;;;;19.25;12.23;;;;;;;;;;5015423;28;20084;-71
2022/09/30 06:48:15;;;;;;;20.17;12.95;;;;;;;;;;4997906;28;20053;-71
2022/09/30 06:50:41;;;;;;;19.88;12.32;;;;;;;;;;4998494;28;20045;-70
2022/09/30 06:53:08;;;;;;;21.38;12.82;;;;;;;;;;5015020;28;20128;-72
2022/09/30 06:55:38;;;;;;;20.45;11.68;;;;;;;;;;5014818;28;20143;-71
2022/09/30 06:58:10;;;;;;;19.48;13.25;;;;;;;;;;5014857;28;20152;-72
2022/09/30 07:00:36;;;;;;;18.63;13.35;;;;;;;;;;5014823;28;20061;-71
2022/09/30 07:03:04;;;;;;;18.45;12.50;;;;;;;;;;5014600;28;20038;-71
2022/09/30 07:05:30;;;;;;;19.00;12.60;;;;;;;;;;5014545;28;20485;-71
2022/09/30 07:07:56;;;;;;;18.33;12.52;;;;;;;;;;5014766;28;20045;-71
2022/09/30 07:10:23;;;;;;;18.25;12.30;;;;;;;;;;5014319;28;20049;-71
2022/09/30 07:12:50;;;;;;;20.05;13.18;;;;;;;;;;4996758;28;20092;-71
2022/09/30 07:15:18;;;;;;;18.63;11.30;;;;;;;;;;5014442;28;20473;-72
2022/09/30 07:17:49;;;;;;;19.85;11.90;;;;;;;;;;5014424;28;20042;-71
2022/09/30 07:20:16;;;;;;;20.80;11.88;;;;;;;;;;4997351;28;20041;-71
2022/09/30 07:22:42;;;;;;;19.58;12.65;;;;;;;;;;4997206;28;20049;-71
2022/09/30 07:25:10;;;;;;;18.40;11.18;;;;;;;;;;4996811;28;20393;-70
2022/09/30 07:27:36;;;;;;;18.42;11.80;;;;;;;;;;5014183;28;20159;-71
2022/09/30 07:30:03;;;;;;;17.58;11.15;;;;;;;;;;5014002;28;20134;-71
2022/09/30 07:32:29;;;;;;;17.10;10.88;;;;;;;;;;5014143;28;20425;-71
2022/09/30 07:34:56;;;;;;;17.05;11.20;;;;;;;;;;4996856;28;20061;-72
2022/09/30 07:37:21;;;;;;;;;;;;;;;;;;4997402;28;20047;-72
2022/09/30 07:39:48;;;;;;;16.27;10.30;;;;;;;;;;5013972;28;19921;-70
2022/09/30 07:42:15;;;;;;;16.38;10.20;;;;;;;;;;5013860;28;20053;-71
2022/09/30 07:44:43;;;;;;;16.20;11.07;;;;;;;;;;4995820;28;20041;-71
2022/09/30 07:47:10;;;;;;;15.82;10.93;;;;;;;;;;5014075;28;20452;-71
2022/09/30 07:49:37;;;;;;;16.88;11.40;;;;;;;;;;4996702;28;20104;-72
2022/09/30 07:52:03;;;;;;;;;;;;;;;;;;4996942;28;20046;-71
2022/09/30 07:54:38;;;;;;;18.38;10.65;;;;;;;;;;5013737;28;20369;-71
2022/09/30 07:57:04;;;;;;;17.33;10.68;;;;;;;;;;5013763;28;20058;-71
2022/09/30 07:59:31;;;;;;;16.50;10.05;;;;;;;;;;5013822;28;20073;-72
2022/09/30 08:01:58;;;;;;;16.58;11.55;;;;;;;;;;5013548;28;20060;-71
2022/09/30 08:04:25;;;;;;;16.70;10.93;;;;;;;;;;5014012;28;20050;-71
2022/09/30 08:06:53;;;;;;;19.88;11.98;;;;;;;;;;5013459;28;20538;-71
2022/09/30 08:09:20;;;;;;;19.80;11.65;;;;;;;;;;5013510;28;20409;-71
2022/09/30 08:11:46;;;;;;;17.40;11.52;;;;;;;;;;4995785;28;20136;-71
2022/09/30 08:14:16;;;;;;;18.95;11.48;;;;;;;;;;5013274;28;20054;-72
2022/09/30 08:16:42;;;;;;;16.77;11.05;;;;;;;;;;5013283;28;20050;-72
2022/09/30 08:19:12;;;;;;;17.30;11.85;;;;;;;;;;5013323;28;20046;-71
2022/09/30 08:21:38;;;;;;;18.10;12.07;;;;;;;;;;4995784;28;20101;-71
2022/09/30 08:24:04;;;;;;;20.65;12.27;;;;;;;;;;5013444;28;20088;-71
2022/09/30 08:26:30;;;;;;;17.92;11.90;;;;;;;;;;4995791;28;20046;-71
2022/09/30 08:28:56;;;;;;;21.33;13.15;;;;;;;;;;5013186;28;20500;-71
2022/09/30 08:31:23;;;;;;;18.70;11.93;;;;;;;;;;4996401;28;20073;-71
2022/09/30 08:33:52;;;;;;;17.60;11.88;;;;;;;;;;5013177;28;20049;-71
2022/09/30 08:36:23;;;;;;;19.50;12.75;;;;;;;;;;4996612;28;20128;-71
2022/09/30 08:38:49;;;;;;;20.63;13.50;;;;;;;;;;5013139;28;20050;-72
2022/09/30 08:41:18;;;;;;;20.02;13.30;;;;;;;;;;5013701;28;20049;-72
2022/09/30 08:44:03;;;;;;;21.13;13.82;;;;;;;;;;4995629;28;20053;-72
2022/09/30 08:46:29;;;;;;;20.55;13.57;;;;;;;;;;5012376;28;20497;-72
2022/09/30 08:48:56;;;;;;;;;;;;;;;;;;5013991;28;20050;-72
2022/09/30 08:51:34;;;;;;;20.10;12.77;;;;;;;;;;5012850;28;19928;-71
2022/09/30 08:54:02;;;;;;;20.77;13.60;;;;;;;;;;5012473;28;20111;-72
2022/09/30 08:56:33;;;;;;;21.73;13.57;;;;;;;;;;4997427;28;20440;-72
2022/09/30 08:59:01;;;;;;;21.33;14.30;;;;;;;;;;5015862;28;20046;-72
2022/09/30 09:01:40;;;;;;;21.10;14.18;;;;;;;;;;5015787;28;20053;-72
2022/09/30 09:04:07;;;;;;;24.00;15.63;;;;;;;;;;5015859;28;20037;-72
2022/09/30 09:06:42;;;;;;;21.30;14.88;;;;;;;;;;5016388;28;20104;-73
2022/09/30 09:09:15;;;;;;;22.42;13.27;;;;;;;;;;4998766;28;20480;-72
2022/09/30 09:11:41;;;;;;;20.95;14.10;;;;;;;;;;4998707;28;20057;-73
2022/09/30 09:14:22;;;;;;;21.52;13.50;;;;;;;;;;5016388;28;20042;-73
2022/09/30 09:16:48;;;;;;;21.17;14.00;;;;;;;;;;5015995;28;20046;-74
2022/09/30 09:19:23;;;;;;;21.38;13.50;;;;;;;;;;4998466;28;20504;-74
2022/09/30 09:22:01;;;;;;;21.15;13.45;;;;;;;;;;5016083;28;20072;-73
2022/09/30 09:24:39;;;;;;;21.23;10.95;;;;;;;;;;5015968;28;20046;-73
2022/09/30 09:27:25;;;;;;;18.50;11.10;;;;;;;;;;5015841;28;20044;-72
2022/09/30 09:29:51;;;;;;;17.70;11.15;;;;;;;;;;5016332;28;20117;-72
2022/09/30 09:32:17;;;;;;;17.67;9.50;;;;;;;;;;4998743;28;20058;-70
2022/09/30 09:34:45;;;;;;;18.42;10.88;;;;;;;;;;5015800;28;20054;-72
2022/09/30 09:38:23;;;;;;;20.33;12.18;;;;;;;;;;5016011;28;20046;-74
2022/09/30 09:40:13;;;;;;;18.85;11.05;;;;;;;;;;4997667;28;20100;-74
2022/09/30 09:42:47;;;;;;;17.77;10.00;;;;;;;;;;4998349;28;20046;-73
2022/09/30 09:45:16;;;;;;;18.20;11.48;;;;;;;;;;5015348;28;20061;-72
2022/09/30 09:47:46;;;;;;;19.10;10.40;;;;;;;;;;4998222;28;20049;-71
2022/09/30 09:50:41;;;;;;;18.10;10.98;;;;;;;;;;4998143;28;20046;-76
2022/09/30 09:53:13;;;;;;;17.02;10.77;;;;;;;;;;4929174;28;20523;-73
2022/09/30 09:55:39;;;;;;;18.33;11.00;;;;;;;;;;4998189;28;20359;-74
2022/09/30 09:58:16;;;;;;;18.08;10.15;;;;;;;;;;5014884;28;20477;-74
2022/09/30 10:03:17;;;;;;;17.95;11.30;;;;;;;;;;5015237;28;20045;-73
2022/09/30 10:05:46;;;;;;;16.15;10.73;;;;;;;;;;5014791;28;20049;-73
2022/09/30 10:08:16;;;;;;;18.95;12.50;;;;;;;;;;5014584;28;20060;-73
2022/09/30 10:11:02;;;;;;;15.55;10.15;;;;;;;;;;5014484;28;20104;-75
2022/09/30 10:13:40;;;;;;;13.80;8.00;;;;;;;;;;5015288;28;20052;-71
2022/09/30 10:16:06;;;;;;;14.75;8.32;;;;;;;;;;5015189;28;20076;-71
2022/09/30 10:18:35;;;;;;;13.63;8.65;;;;;;;;;;4996696;28;20042;-75
2022/09/30 10:21:05;;;;;;;12.85;7.65;;;;;;;;;;4994331;28;20597;-73
2022/09/30 10:23:32;;;;;;;12.98;6.85;;;;;;;;;;5014129;28;20453;-76
2022/09/30 10:26:04;;;;;;;12.70;7.15;;;;;;;;;;5014267;28;20081;-74
2022/09/30 10:28:43;;;;;;;12.68;7.50;;;;;;;;;;5014078;28;20112;-74
2022/09/30 10:31:16;;;;;;;11.82;7.10;;;;;;;;;;4981023;28;20057;-78
2022/09/30 10:33:43;;;;;;;12.57;6.28;;;;;;;;;;4997464;28;20053;-77
2022/09/30 10:36:12;;;;;;;11.30;7.20;;;;;;;;;;5014330;28;20085;-78
2022/09/30 10:38:45;;;;;;;13.98;8.43;;;;;;;;;;5014241;28;20401;-83
2022/09/30 10:41:12;;;;;;;15.55;7.35;;;;;;;;;;5014461;28;20137;-75
2022/09/30 10:43:43;;;;;;;11.55;7.00;;;;;;;;;;4996402;28;20045;-75
2022/09/30 10:46:09;;;;;;;17.08;8.68;;;;;;;;;;4997587;28;20065;-77
2022/09/30 10:48:35;;;;;;;;;;;;;;;;;;5014820;28;20136;-74
2022/09/30 10:51:02;;;;;;;13.90;9.10;;;;;;;;;;4996591;28;19921;-80
2022/09/30 10:53:42;;;;;;;15.75;9.35;;;;;;;;;;5013914;28;20046;-76
2022/09/30 10:56:08;;;;;;;16.50;10.43;;;;;;;;;;5014025;28;20050;-77
2022/09/30 10:58:53;;;;;;;17.05;10.15;;;;;;;;;;4996334;28;20112;-78
2022/09/30 11:01:27;;;;;;;17.15;9.73;;;;;;;;;;5014041;28;20065;-78
2022/09/30 11:04:07;;;;;;;16.20;9.77;;;;;;;;;;5014455;28;20358;-79
2022/09/30 11:06:36;;;;;;;15.02;8.30;;;;;;;;;;4997375;28;20133;-80
2022/09/30 11:09:33;;;;;;;13.50;6.00;;;;;;;;;;5014022;28;20045;-81
2022/09/30 11:12:21;;;;;;;11.10;5.70;;;;;;;;;;5013509;28;20476;-75
2022/09/30 11:14:50;;;;;;;8.75;4.35;;;;;;;;;;5014245;28;20157;-71
2022/09/30 11:17:22;;;;;;;11.25;4.75;;;;;;;;;;5013467;28;20054;-74
2022/09/30 11:20:08;;;;;;;9.93;4.15;;;;;;;;;;4979879;28;20061;-70
2022/09/30 11:22:41;;;;;;;9.88;4.28;;;;;;;;;;5013108;28;20054;-74
2022/09/30 11:25:12;;;;;;;9.13;3.60;;;;;;;;;;5013499;28;20042;-74
2022/09/30 11:27:50;;;;;;;8.20;3.33;;;;;;;;;;5014120;28;20049;-72
2022/09/30 11:30:16;;;;;;;8.02;3.10;;;;;;;;;;5013566;28;20076;-73
2022/09/30 11:32:42;;;;;;;7.55;3.35;;;;;;;;;;5015935;28;20385;-76
2022/09/30 11:35:27;;;;;;;7.70;3.28;;;;;;;;;;5018113;28;20136;-76
2022/09/30 11:38:02;;;;;;;9.05;3.88;;;;;;;;;;5013390;28;20084;-77
2022/09/30 11:40:40;;;;;;;7.90;3.28;;;;;;;;;;5014057;28;20053;-71
2022/09/30 11:43:25;;;;;;;8.35;3.10;;;;;;;;;;5013366;28;20045;-79
2022/09/30 11:45:53;;;;;;;9.45;3.45;;;;;;;;;;5014278;28;20042;-72
2022/09/30 11:48:29;;;;;;;8.10;3.15;;;;;;;;;;4996481;28;20097;-76
2022/09/30 11:51:03;;;;;;;8.10;2.72;;;;;;;;;;5013349;28;20455;-78
2022/09/30 11:53:29;;;;;;;6.82;2.63;;;;;;;;;;5013329;28;20086;-74
2022/09/30 11:56:18;;;;;;;8.35;2.80;;;;;;;;;;5013222;28;20084;-81
2022/09/30 11:58:47;;;;;;;6.97;2.47;;;;;;;;;;5012300;28;20123;-76
2022/09/30 12:01:27;;;;;;;7.13;2.72;;;;;;;;;;5013851;28;20057;-79
2022/09/30 12:04:17;;;;;;;8.10;3.47;;;;;;;;;;4996703;28;20073;-77
2022/09/30 12:06:49;;;;;;;10.10;3.40;;;;;;;;;;4988247;28;20053;-72
2022/09/30 12:09:38;;;;;;;7.82;2.88;;;;;;;;;;4996547;28;20046;-75
2022/09/30 12:12:07;;;;;;;8.73;2.85;;;;;;;;;;4984905;28;20539;-78
2022/09/30 12:14:41;;;;;;;8.88;2.90;;;;;;;;;;5012870;28;20116;-73
2022/09/30 12:17:20;;;;;;;6.38;2.55;;;;;;;;;;5012905;28;20080;-73
2022/09/30 12:19:52;;;;;;;8.70;2.80;;;;;;;;;;5013665;28;20460;-78
2022/09/30 12:22:22;;;;;;;8.90;2.80;;;;;;;;;;4979614;28;20041;-83
2022/09/30 12:24:48;;;;;;;7.72;3.10;;;;;;;;;;4995218;28;20057;-77
2022/09/30 12:27:16;;;;;;;7.97;2.78;;;;;;;;;;5012443;28;20053;-73
2022/09/30 12:32:45;;;;;;;8.75;3.10;;;;;;;;;;5013027;28;20046;-76
2022/09/30 12:35:31;;;;;;;10.45;2.75;;;;;;;;;;4995787;28;20054;-74
2022/09/30 12:38:16;;;;;;;8.68;2.92;;;;;;;;;;5011698;28;20519;-73
2022/09/30 12:40:45;;;;;;;8.20;2.83;;;;;;;;;;5012494;28;20054;-82
2022/09/30 12:43:11;;;;;;;8.63;3.00;;;;;;;;;;4994687;28;20050;-79
2022/09/30 12:45:56;;;;;;;7.85;2.97;;;;;;;;;;4995014;28;20056;-79
2022/09/30 12:48:24;;;;;;;8.35;2.88;;;;;;;;;;5012272;28;20050;-75
2022/09/30 12:50:56;;;;;;;7.53;3.00;;;;;;;;;;5012384;28;20046;-83
2022/09/30 12:53:30;;;;;;;9.75;2.80;;;;;;;;;;5012979;28;20058;-78
2022/09/30 12:56:24;;;;;;;8.10;2.65;;;;;;;;;;4994860;28;20133;-75
2022/09/30 12:58:51;;;;;;;7.45;2.47;;;;;;;;;;4992353;28;20137;-70
2022/09/30 13:01:21;;;;;;;8.85;2.95;;;;;;;;;;5012773;28;20042;-72
2022/09/30 13:03:52;;;;;;;7.70;2.70;;;;;;;;;;5012438;28;20249;-78
2022/09/30 13:06:20;;;;;;;7.28;2.80;;;;;;;;;;5013391;28;20050;-82
2022/09/30 13:09:06;;;;;;;6.50;2.53;;;;;;;;;;5012671;28;20042;-73
2022/09/30 13:11:39;;;;;;;6.78;2.50;;;;;;;;;;5013086;28;20073;-76
2022/09/30 13:14:17;;;;;;;6.30;2.30;;;;;;;;;;5012943;28;20054;-74
2022/09/30 13:17:03;;;;;;;6.65;2.45;;;;;;;;;;5012133;28;20136;-74
2022/09/30 13:19:36;;;;;;;8.38;2.50;;;;;;;;;;5012884;28;20049;-77
2022/09/30 13:22:20;;;;;;;7.43;2.60;;;;;;;;;;5012993;28;20051;-72
2022/09/30 13:25:01;;;;;;;10.20;2.90;;;;;;;;;;4994498;28;20451;-69
2022/09/30 13:27:33;;;;;;;10.52;3.00;;;;;;;;;;5012598;28;20473;-76
2022/09/30 13:30:00;;;;;;;9.15;3.13;;;;;;;;;;4995307;28;20136;-75
2022/09/30 13:32:30;;;;;;;7.50;2.65;;;;;;;;;;5012729;28;20093;-72
2022/09/30 13:34:57;;;;;;;7.90;2.92;;;;;;;;;;5012060;28;20072;-79
2022/09/30 13:37:22;;;;;;;;;;;;;;;;;;4995199;28;20503;-85
2022/09/30 13:39:54;;;;;;;6.95;2.88;;;;;;;;;;5012796;28;20004;-77
2022/09/30 13:42:25;;;;;;;9.38;3.28;;;;;;;;;;4997021;28;20073;-81
2022/09/30 13:45:12;;;;;;;8.70;3.33;;;;;;;;;;5015980;28;20050;-73
2022/09/30 13:47:46;;;;;;;8.15;3.38;;;;;;;;;;5015575;28;20133;-74
2022/09/30 13:50:38;;;;;;;10.27;3.47;;;;;;;;;;5015407;28;20128;-74
2022/09/30 13:53:12;;;;;;;13.75;3.70;;;;;;;;;;4994361;28;20065;-79
2022/09/30 13:55:46;;;;;;;9.50;3.90;;;;;;;;;;5016030;28;20132;-78
2022/09/30 13:58:12;;;;;;;9.68;3.70;;;;;;;;;;5015267;28;20064;-76
2022/09/30 14:00:57;;;;;;;12.52;3.42;;;;;;;;;;5017497;28;20056;-82
2022/09/30 14:03:31;;;;;;;10.68;3.67;;;;;;;;;;5015916;28;20046;-80
2022/09/30 14:06:05;;;;;;;8.07;3.75;;;;;;;;;;5014864;28;20061;-81
2022/09/30 14:08:31;;;;;;;8.98;3.50;;;;;;;;;;5015849;28;20057;-75
2022/09/30 14:11:11;;;;;;;9.65;3.72;;;;;;;;;;5014714;28;20054;-73
2022/09/30 14:13:40;;;;;;;10.00;3.78;;;;;;;;;;5014579;28;20535;-74
2022/09/30 14:16:24;;;;;;;9.60;4.53;;;;;;;;;;5014458;28;20129;-74
2022/09/30 14:19:06;;;;;;;9.43;4.50;;;;;;;;;;4997646;28;20354;-82
2022/09/30 14:21:37;;;;;;;9.88;4.90;;;;;;;;;;5014683;28;20114;-77
2022/09/30 14:24:08;;;;;;;11.40;5.28;;;;;;;;;;5018554;28;20045;-79
2022/09/30 14:26:37;;;;;;;10.52;5.25;;;;;;;;;;5031129;28;20065;-73
2022/09/30 14:29:22;;;;;;;10.15;5.07;;;;;;;;;;5017392;28;20062;-77
2022/09/30 14:31:48;;;;;;;10.07;5.15;;;;;;;;;;5015906;28;20054;-82
2022/09/30 14:34:15;;;;;;;12.25;4.80;;;;;;;;;;5014368;28;20046;-78
2022/09/30 14:36:43;;;;;;;10.88;4.90;;;;;;;;;;5014002;28;20123;-78
2022/09/30 14:39:18;;;;;;;11.55;5.13;;;;;;;;;;4996376;28;20084;-77
2022/09/30 14:41:55;;;;;;;9.82;5.13;;;;;;;;;;4996796;28;20141;-81
2022/09/30 14:44:23;;;;;;;10.57;5.25;;;;;;;;;;5014022;28;20095;-75
2022/09/30 14:46:50;;;;;;;11.68;5.53;;;;;;;;;;4996948;28;20104;-85
2022/09/30 14:49:22;;;;;;;11.30;5.50;;;;;;;;;;5014493;28;20054;-85
2022/09/30 14:51:49;;;;;;;10.20;5.10;;;;;;;;;;5014317;28;20589;-89
2022/09/30 14:54:19;;;;;;;11.82;5.05;;;;;;;;;;5013589;28;20394;-82
2022/09/30 14:56:45;;;;;;;10.45;4.22;;;;;;;;;;5014051;28;20056;-79
2022/09/30 14:59:19;;;;;;;11.48;4.00;;;;;;;;;;5014074;28;20061;-86